Time;durP1;ratioP1;P1;durP2;ratioP2;P2;SDS_P1;SDS_P2;PMS_P1;PMS_P2;Temp;Humidity;BMP_temperature;BMP_pressure;BME280_temperature;BME280_humidity;BME280_pressure;Samples;Min_cycle;Max_cycle;Signal;HPM_P1;HPM_P2
2023/03/12 00:01:48;;;;;;;5.32;2.45;;;0.40;99.90;;;;;;5028930;28;20029;-82
2023/03/12 00:04:13;;;;;;;3.50;2.07;;;0.40;99.90;;;;;;5028833;28;20054;-82
2023/03/12 00:06:39;;;;;;;8.18;2.55;;;0.40;99.90;;;;;;5012642;28;20293;-82
2023/03/12 00:09:05;;;;;;;5.90;2.60;;;0.50;99.90;;;;;;5012527;28;20041;-81
2023/03/12 00:11:31;;;;;;;6.32;2.47;;;0.50;99.90;;;;;;4994500;28;20045;-81
2023/03/12 00:13:59;;;;;;;6.22;2.40;;;0.40;99.90;;;;;;5028902;28;20044;-81
2023/03/12 00:16:25;;;;;;;5.38;2.10;;;0.30;99.90;;;;;;4996810;28;20513;-82
2023/03/12 00:18:53;;;;;;;10.40;2.42;;;0.30;99.90;;;;;;5028851;28;20122;-81
2023/03/12 00:21:20;;;;;;;6.57;2.22;;;0.30;99.90;;;;;;5029110;28;20037;-81
2023/03/12 00:23:50;;;;;;;2.70;1.75;;;0.30;99.90;;;;;;5026948;28;21351;-81
2023/03/12 00:26:17;;;;;;;4.38;2.53;;;0.30;99.90;;;;;;5012367;28;20033;-82
2023/03/12 00:28:43;;;;;;;4.90;2.30;;;0.30;99.90;;;;;;5029092;28;20041;-81
2023/03/12 00:31:19;;;;;;;3.58;2.20;;;0.30;99.90;;;;;;5028378;28;20116;-81
2023/03/12 00:33:48;;;;;;;3.47;2.30;;;0.30;99.90;;;;;;5027205;28;20049;-81
2023/03/12 00:36:15;;;;;;;3.20;2.47;;;0.70;99.90;;;;;;5029009;28;20045;-81
2023/03/12 00:38:40;;;;;;;;;;;1.00;99.90;;;;;;5029448;28;20037;-81
2023/03/12 00:41:06;;;;;;;6.22;2.60;;;0.20;99.90;;;;;;5028876;28;20270;-81
2023/03/12 00:43:32;;;;;;;6.10;3.00;;;0.30;99.90;;;;;;5012928;28;20041;-81
2023/03/12 00:45:57;;;;;;;4.53;2.40;;;0.20;99.90;;;;;;5012147;28;20103;-80
2023/03/12 00:48:24;;;;;;;7.13;3.33;;;0.50;99.90;;;;;;5012681;28;20397;-82
2023/03/12 00:50:49;;;;;;;5.68;3.10;;;0.20;99.90;;;;;;5028837;28;20391;-81
2023/03/12 00:53:15;;;;;;;5.85;2.90;;;1.20;99.90;;;;;;5030796;28;20053;-81
2023/03/12 00:55:41;;;;;;;7.45;2.83;;;0.20;99.90;;;;;;5028893;28;20111;-81
2023/03/12 00:58:06;;;;;;;8.48;3.58;;;0.20;99.90;;;;;;5028581;28;20041;-81
2023/03/12 01:00:32;;;;;;;5.60;3.08;;;0.20;99.90;;;;;;5028671;28;20108;-81
2023/03/12 01:02:58;;;;;;;9.05;3.92;;;0.20;99.90;;;;;;4995848;28;21605;-81
2023/03/12 01:05:24;;;;;;;5.68;3.08;;;0.20;99.90;;;;;;5028695;28;20057;-82
2023/03/12 01:07:49;;;;;;;6.25;3.75;;;0.20;99.90;;;;;;4996322;28;20056;-82
2023/03/12 01:10:18;;;;;;;7.45;3.85;;;0.20;99.90;;;;;;5028451;28;20092;-82
2023/03/12 01:12:43;;;;;;;8.95;3.33;;;0.20;99.90;;;;;;5028535;28;20046;-81
2023/03/12 01:15:13;;;;;;;6.40;3.35;;;0.90;99.90;;;;;;5028446;28;20030;-81
2023/03/12 01:17:39;;;;;;;6.70;3.33;;;1.20;99.90;;;;;;5031632;28;20037;-81
2023/03/12 01:20:07;;;;;;;6.68;3.50;;;0.20;99.90;;;;;;5031913;28;20071;-81
2023/03/12 01:22:33;;;;;;;6.88;3.70;;;0.10;99.90;;;;;;5031858;28;20052;-81
2023/03/12 01:24:59;;;;;;;5.88;3.67;;;0.60;99.90;;;;;;5031716;28;20037;-81
2023/03/12 01:27:24;;;;;;;7.65;4.13;;;0.10;99.90;;;;;;5032019;28;20382;-81
2023/03/12 01:29:50;;;;;;;10.07;4.32;;;0.10;99.90;;;;;;5032212;28;20053;-81
2023/03/12 01:32:16;;;;;;;7.70;4.00;;;0.10;99.90;;;;;;5015143;28;20037;-82
2023/03/12 01:34:42;;;;;;;8.48;4.13;;;1.40;99.90;;;;;;5031556;28;20046;-82
2023/03/12 01:37:08;;;;;;;;;;;0.80;99.90;;;;;;5029405;28;20111;-81
2023/03/12 01:39:34;;;;;;;6.70;3.30;;;0.40;99.90;;;;;;5031745;28;20316;-82
2023/03/12 01:42:00;;;;;;;6.00;3.80;;;0.10;99.90;;;;;;5015087;28;20044;-81
2023/03/12 01:44:26;;;;;;;8.95;3.63;;;0.90;99.90;;;;;;4999352;28;20080;-81
2023/03/12 01:46:52;;;;;;;7.47;4.28;;;0.10;99.90;;;;;;5031651;28;20073;-81
2023/03/12 01:49:27;;;;;;;8.65;3.67;;;0.10;99.90;;;;;;5031056;28;20485;-81
2023/03/12 01:52:18;;;;;;;7.00;4.13;;;0.10;99.90;;;;;;5014817;28;20045;-81
2023/03/12 01:55:08;;;;;;;6.53;3.47;;;0.20;99.90;;;;;;5030215;28;20045;-81
2023/03/12 01:57:42;;;;;;;8.02;3.75;;;0.20;99.90;;;;;;5012877;28;20083;-81
2023/03/12 02:00:14;;;;;;;8.43;3.88;;;0.20;99.90;;;;;;5031184;28;20046;-81
2023/03/12 02:02:43;;;;;;;5.78;2.85;;;0.20;99.90;;;;;;5031352;28;20501;-81
2023/03/12 02:05:32;;;;;;;11.88;3.67;;;0.30;99.90;;;;;;5030879;28;20065;-81
2023/03/12 02:07:58;;;;;;;6.68;3.42;;;0.30;99.90;;;;;;5030922;28;20041;-81
2023/03/12 02:10:24;;;;;;;11.68;3.70;;;0.30;99.90;;;;;;5031058;28;20040;-81
2023/03/12 02:12:50;;;;;;;;;;;0.70;99.90;;;;;;5031634;28;20095;-82
2023/03/12 02:15:16;;;;;;;7.72;3.70;;;0.30;99.90;;;;;;5030555;28;19916;-81
2023/03/12 02:17:42;;;;;;;5.28;3.70;;;0.30;99.90;;;;;;4998645;28;20103;-81
2023/03/12 02:20:26;;;;;;;7.03;3.90;;;0.30;99.90;;;;;;5013607;28;20038;-81
2023/03/12 02:23:03;;;;;;;6.88;3.67;;;0.30;99.90;;;;;;5029614;28;20041;-82
2023/03/12 02:25:37;;;;;;;9.57;4.13;;;0.60;99.90;;;;;;5029982;28;20446;-81
2023/03/12 02:28:06;;;;;;;6.70;3.63;;;0.50;99.90;;;;;;5029398;28;20060;-81
2023/03/12 02:30:32;;;;;;;8.70;3.83;;;0.40;99.90;;;;;;5030764;28;20049;-82
2023/03/12 02:33:04;;;;;;;;;;;0.60;99.90;;;;;;5014740;28;20073;-81
2023/03/12 02:35:29;;;;;;;7.50;3.50;;;0.50;99.90;;;;;;5030986;28;20355;-81
2023/03/12 02:37:56;;;;;;;9.13;4.00;;;0.60;99.90;;;;;;5030504;28;20079;-81
2023/03/12 02:40:27;;;;;;;7.50;4.13;;;1.40;99.90;;;;;;5013964;28;20045;-81
2023/03/12 02:42:54;;;;;;;8.50;3.55;;;0.70;99.90;;;;;;5030651;28;20069;-81
2023/03/12 02:45:20;;;;;;;3.40;2.13;;;0.70;99.90;;;;;;5030547;28;20405;-81
2023/03/12 02:47:45;;;;;;;9.15;4.25;;;0.80;99.90;;;;;;5030464;28;20120;-82
2023/03/12 02:50:11;;;;;;;6.07;4.10;;;0.80;99.90;;;;;;5027571;28;20498;-81
2023/03/12 02:52:37;;;;;;;9.05;3.40;;;0.80;99.90;;;;;;5030283;28;20652;-81
2023/03/12 02:55:07;;;;;;;7.93;3.42;;;0.80;99.90;;;;;;5029878;28;20091;-82
2023/03/12 02:57:36;;;;;;;6.70;3.42;;;0.70;99.90;;;;;;5030475;28;20052;-82
2023/03/12 03:00:05;;;;;;;8.77;3.00;;;0.80;99.90;;;;;;5031282;28;20532;-81
2023/03/12 03:02:31;;;;;;;7.95;3.38;;;0.90;99.90;;;;;;5028269;28;20049;-81
2023/03/12 03:04:57;;;;;;;12.00;3.80;;;1.00;99.90;;;;;;5030314;28;20067;-81
2023/03/12 03:07:22;;;;;;;5.97;2.92;;;0.80;99.90;;;;;;5029879;28;20588;-82
2023/03/12 03:09:48;;;;;;;6.70;3.20;;;0.90;99.90;;;;;;5030293;28;20513;-81
2023/03/12 03:12:14;;;;;;;7.25;2.97;;;0.80;99.90;;;;;;5013805;28;20133;-81
2023/03/12 03:14:39;;;;;;;7.18;3.40;;;0.80;99.90;;;;;;5013611;28;20045;-82
2023/03/12 03:17:05;;;;;;;8.82;3.53;;;0.80;99.90;;;;;;5029590;28;20527;-81
2023/03/12 03:19:31;;;;;;;5.68;2.60;;;0.80;99.90;;;;;;5030071;28;20057;-81
2023/03/12 03:21:56;;;;;;;8.85;2.90;;;0.80;99.90;;;;;;5030201;28;20159;-81
2023/03/12 03:24:22;;;;;;;7.68;3.38;;;0.90;99.90;;;;;;5030010;28;20064;-81
2023/03/12 03:26:48;;;;;;;9.23;2.85;;;1.90;99.90;;;;;;5013249;28;20067;-81
2023/03/12 03:29:14;;;;;;;9.25;3.00;;;0.90;99.90;;;;;;5029430;28;20042;-81
2023/03/12 03:31:39;;;;;;;4.55;2.65;;;1.30;99.90;;;;;;5029573;28;20472;-81
2023/03/12 03:34:05;;;;;;;5.40;2.90;;;0.90;99.90;;;;;;5029486;28;20577;-81
2023/03/12 03:36:31;;;;;;;6.22;2.97;;;0.90;99.90;;;;;;5013420;28;20276;-81
2023/03/12 03:38:56;;;;;;;7.80;2.63;;;0.90;99.90;;;;;;5013325;28;20061;-81
2023/03/12 03:41:22;;;;;;;6.95;3.03;;;0.90;99.90;;;;;;5029231;28;20037;-81
2023/03/12 03:43:48;;;;;;;6.18;2.60;;;0.90;99.90;;;;;;5013222;28;20513;-81
2023/03/12 03:46:14;;;;;;;6.18;2.72;;;0.90;99.90;;;;;;5029221;28;20723;-81
2023/03/12 03:48:40;;;;;;;5.43;3.03;;;0.90;99.90;;;;;;5029546;28;20417;-81
2023/03/12 03:51:07;;;;;;;4.85;3.00;;;0.90;99.90;;;;;;5029500;28;20571;-81
2023/03/12 03:53:34;;;;;;;6.85;2.70;;;0.90;99.90;;;;;;5012961;28;20119;-81
2023/03/12 03:56:07;;;;;;;;;;;0.90;99.90;;;;;;5030075;28;20041;-81
2023/03/12 03:58:32;;;;;;;5.18;2.70;;;1.00;99.90;;;;;;5028098;28;19923;-80
2023/03/12 04:00:58;;;;;;;6.47;2.50;;;1.00;99.90;;;;;;5013251;28;20029;-81
2023/03/12 04:03:24;;;;;;;3.90;2.20;;;1.00;99.90;;;;;;5029036;28;20053;-81
2023/03/12 04:05:57;;;;;;;3.70;2.23;;;1.00;99.90;;;;;;5013067;28;20288;-81
2023/03/12 04:08:23;;;;;;;3.80;2.50;;;2.20;99.90;;;;;;5012115;28;20300;-81
2023/03/12 04:10:49;;;;;;;7.15;3.22;;;1.00;99.90;;;;;;5029484;28;20062;-81
2023/03/12 04:13:15;;;;;;;8.23;2.85;;;1.20;99.90;;;;;;5012708;28;20034;-81
2023/03/12 04:15:49;;;;;;;5.15;2.90;;;1.10;99.90;;;;;;5012950;28;20037;-81
2023/03/12 04:18:15;;;;;;;5.28;2.90;;;1.10;99.90;;;;;;5028691;28;20030;-81
2023/03/12 04:20:42;;;;;;;5.13;3.13;;;1.10;99.90;;;;;;5012920;28;20095;-81
2023/03/12 04:23:08;;;;;;;5.68;2.70;;;1.10;99.90;;;;;;5013037;28;20528;-81
2023/03/12 04:25:33;;;;;;;5.40;2.70;;;1.70;99.90;;;;;;5029274;28;20073;-81
2023/03/12 04:28:00;;;;;;;5.63;2.83;;;1.20;99.90;;;;;;5029247;28;20044;-81
2023/03/12 04:30:25;;;;;;;;;;;1.20;99.90;;;;;;5029434;28;20041;-81
2023/03/12 04:32:52;;;;;;;5.05;2.88;;;2.20;99.90;;;;;;5012467;28;19966;-81
2023/03/12 04:35:18;;;;;;;4.40;2.10;;;1.20;99.90;;;;;;5028835;28;20454;-81
2023/03/12 04:37:44;;;;;;;4.63;2.85;;;1.20;99.90;;;;;;5012998;28;20064;-81
2023/03/12 04:40:11;;;;;;;7.30;2.65;;;1.20;99.90;;;;;;5030542;28;20171;-81
2023/03/12 04:42:37;;;;;;;5.43;2.95;;;1.20;99.90;;;;;;5029818;28;20041;-80
2023/03/12 04:45:05;;;;;;;7.13;2.78;;;1.40;99.90;;;;;;5029408;28;20099;-81
2023/03/12 04:47:33;;;;;;;7.97;2.70;;;1.30;99.90;;;;;;5028906;28;20049;-81
2023/03/12 04:50:00;;;;;;;6.03;2.78;;;1.30;99.90;;;;;;5028927;28;20045;-80
2023/03/12 04:52:25;;;;;;;6.30;2.75;;;1.30;99.90;;;;;;5031666;28;20051;-81
2023/03/12 04:54:52;;;;;;;6.05;3.05;;;1.30;99.90;;;;;;5032522;28;20045;-81
2023/03/12 04:57:18;;;;;;;;;;;2.00;99.90;;;;;;5033033;28;20045;-81
2023/03/12 04:59:43;;;;;;;7.30;3.85;;;1.30;99.90;;;;;;5032387;28;20307;-81
2023/03/12 05:02:09;;;;;;;6.00;3.40;;;1.30;99.90;;;;;;5032539;28;20103;-80
2023/03/12 05:04:35;;;;;;;6.22;3.00;;;1.30;99.90;;;;;;5032228;28;20049;-81
2023/03/12 05:07:01;;;;;;;6.85;2.92;;;1.70;99.90;;;;;;5032362;28;20057;-81
2023/03/12 05:09:26;;;;;;;5.60;3.40;;;1.30;99.90;;;;;;5031876;28;20041;-81
2023/03/12 05:11:52;;;;;;;7.60;3.55;;;1.30;99.90;;;;;;4999361;28;20444;-80
2023/03/12 05:14:18;;;;;;;4.78;2.60;;;1.30;99.90;;;;;;5031921;28;20046;-80
2023/03/12 05:16:44;;;;;;;3.22;2.08;;;1.80;99.90;;;;;;5015273;28;20418;-80
2023/03/12 05:19:10;;;;;;;4.17;3.00;;;2.40;99.90;;;;;;5014779;28;20029;-80
2023/03/12 05:21:35;;;;;;;7.68;3.38;;;1.30;99.90;;;;;;5015330;28;20280;-80
2023/03/12 05:24:02;;;;;;;5.72;2.83;;;1.50;99.90;;;;;;5031799;28;20037;-80
2023/03/12 05:26:31;;;;;;;6.22;3.33;;;1.30;99.90;;;;;;5031888;28;20049;-80
2023/03/12 05:28:58;;;;;;;4.72;2.97;;;1.30;99.90;;;;;;5031696;28;20106;-80
2023/03/12 05:31:24;;;;;;;7.65;3.40;;;1.30;99.90;;;;;;5015129;28;20042;-80
2023/03/12 05:33:50;;;;;;;5.45;3.03;;;1.30;99.90;;;;;;5014959;28;20127;-80
2023/03/12 05:36:16;;;;;;;9.80;3.28;;;1.40;99.90;;;;;;5014463;28;20037;-80
2023/03/12 05:38:42;;;;;;;7.45;3.05;;;1.40;99.90;;;;;;5030848;28;20044;-80
2023/03/12 05:41:15;;;;;;;4.68;3.00;;;1.40;99.90;;;;;;5029878;28;20041;-80
2023/03/12 05:43:41;;;;;;;6.95;2.97;;;2.00;99.90;;;;;;5014674;28;20124;-80
2023/03/12 05:46:08;;;;;;;4.67;2.43;;;2.30;99.90;;;;;;4998981;28;20428;-80
2023/03/12 05:48:34;;;;;;;8.00;3.70;;;1.50;99.90;;;;;;5031460;28;20652;-81
2023/03/12 05:50:59;;;;;;;7.05;3.22;;;1.50;99.90;;;;;;5015207;28;20045;-81
2023/03/12 05:53:25;;;;;;;8.32;2.75;;;2.40;99.90;;;;;;5014827;28;20088;-80
2023/03/12 05:55:51;;;;;;;4.10;3.05;;;1.50;99.90;;;;;;5031859;28;20037;-80
2023/03/12 05:58:17;;;;;;;9.33;3.30;;;2.30;99.90;;;;;;5031054;28;20045;-81
2023/03/12 06:00:43;;;;;;;5.63;3.22;;;1.50;99.90;;;;;;5015033;28;20041;-80
2023/03/12 06:03:09;;;;;;;6.50;3.30;;;1.50;99.90;;;;;;5030779;28;20053;-81
2023/03/12 06:05:36;;;;;;;7.53;3.42;;;2.00;99.90;;;;;;5031049;28;20390;-81
2023/03/12 06:08:03;;;;;;;6.03;3.08;;;1.60;99.90;;;;;;5031029;28;20106;-81
2023/03/12 06:10:29;;;;;;;5.82;2.88;;;1.60;99.90;;;;;;5031160;28;20075;-80
2023/03/12 06:12:56;;;;;;;12.07;4.10;;;1.60;99.90;;;;;;5014652;28;20421;-81
2023/03/12 06:15:22;;;;;;;6.97;3.03;;;1.80;99.90;;;;;;5028846;28;20504;-80
2023/03/12 06:17:48;;;;;;;4.88;3.22;;;1.60;99.90;;;;;;5031422;28;20120;-81
2023/03/12 06:20:14;;;;;;;6.47;3.08;;;1.60;99.90;;;;;;5015367;28;20065;-80
2023/03/12 06:22:39;;;;;;;11.55;3.50;;;1.70;99.90;;;;;;5015021;28;20467;-81
2023/03/12 06:25:06;;;;;;;8.00;3.53;;;2.80;99.90;;;;;;5014732;28;20038;-80
2023/03/12 06:27:31;;;;;;;6.07;2.63;;;1.70;99.90;;;;;;5030636;28;20164;-80
2023/03/12 06:29:57;;;;;;;9.52;3.70;;;1.60;99.90;;;;;;5030858;28;20496;-81
2023/03/12 06:32:23;;;;;;;8.07;3.30;;;2.70;99.90;;;;;;5013549;28;20497;-81
2023/03/12 06:34:49;;;;;;;6.72;3.13;;;1.70;99.90;;;;;;5030725;28;20292;-81
2023/03/12 06:37:14;;;;;;;6.28;3.65;;;2.40;99.90;;;;;;5031094;28;20033;-81
2023/03/12 06:39:40;;;;;;;6.50;3.30;;;1.70;99.90;;;;;;5013740;28;20340;-81
2023/03/12 06:42:06;;;;;;;6.05;3.10;;;1.70;99.90;;;;;;5030695;28;20034;-81
2023/03/12 06:44:32;;;;;;;5.65;3.30;;;1.70;99.90;;;;;;5030395;28;20089;-81
2023/03/12 06:46:58;;;;;;;9.23;3.50;;;2.10;99.90;;;;;;5030570;28;20042;-81
2023/03/12 06:49:24;;;;;;;5.07;3.42;;;1.70;99.90;;;;;;5030086;28;20064;-82
2023/03/12 06:51:50;;;;;;;6.20;3.60;;;2.90;99.90;;;;;;5030392;28;20045;-81
2023/03/12 06:54:15;;;;;;;8.95;3.50;;;2.50;99.90;;;;;;5030598;28;20095;-80
2023/03/12 06:56:41;;;;;;;7.55;3.47;;;1.80;99.90;;;;;;5030278;28;20052;-81
2023/03/12 06:59:07;;;;;;;10.23;3.88;;;1.90;99.90;;;;;;5013931;28;20065;-81
2023/03/12 07:01:33;;;;;;;8.27;3.63;;;1.90;99.90;;;;;;5013529;28;20124;-81
2023/03/12 07:03:58;;;;;;;11.57;3.75;;;2.80;99.90;;;;;;5030077;28;20049;-82
2023/03/12 07:06:24;;;;;;;8.90;3.70;;;1.90;99.90;;;;;;5029954;28;20041;-82
2023/03/12 07:08:50;;;;;;;5.95;3.92;;;1.90;99.90;;;;;;5030195;28;20041;-82
2023/03/12 07:11:19;;;;;;;4.80;2.95;;;1.90;99.90;;;;;;5013913;28;20052;-82
2023/03/12 07:13:45;;;;;;;8.55;3.72;;;1.90;99.90;;;;;;4996448;28;20042;-82
2023/03/12 07:16:11;;;;;;;;;;;2.50;99.90;;;;;;5030518;28;20037;-82
2023/03/12 07:18:36;;;;;;;9.57;4.00;;;2.00;99.90;;;;;;5029693;28;20043;-81
2023/03/12 07:21:02;;;;;;;5.77;3.60;;;2.10;99.90;;;;;;5013572;28;20033;-82
2023/03/12 07:23:28;;;;;;;7.93;4.70;;;2.10;99.90;;;;;;5029823;28;20276;-82
2023/03/12 07:25:54;;;;;;;8.98;5.20;;;2.10;99.90;;;;;;5013871;28;20045;-82
2023/03/12 07:28:20;;;;;;;10.05;5.15;;;2.20;99.90;;;;;;5029911;28;20128;-82
2023/03/12 07:30:49;;;;;;;;;;;3.00;99.90;;;;;;5030141;28;20108;-82
2023/03/12 07:33:17;;;;;;;5.63;3.60;;;2.00;99.90;;;;;;5011897;28;20289;-81
2023/03/12 07:35:46;;;;;;;8.88;5.40;;;2.00;99.90;;;;;;5012948;28;20029;-82
2023/03/12 07:38:12;;;;;;;10.40;5.18;;;1.90;99.90;;;;;;5029679;28;20037;-82
2023/03/12 07:40:38;;;;;;;11.38;5.03;;;2.80;99.90;;;;;;5013144;28;20046;-82
2023/03/12 07:43:09;;;;;;;9.73;5.03;;;2.90;99.90;;;;;;5013687;28;20055;-82
2023/03/12 07:45:39;;;;;;;10.77;6.25;;;1.80;99.90;;;;;;5012916;28;20427;-82
2023/03/12 07:48:05;;;;;;;9.48;5.75;;;1.70;99.90;;;;;;5029474;28;20037;-82
2023/03/12 07:50:31;;;;;;;7.80;5.32;;;1.70;99.90;;;;;;4996681;28;20489;-82
2023/03/12 07:52:57;;;;;;;12.98;6.43;;;1.70;99.90;;;;;;5012976;28;20124;-82
2023/03/12 07:55:23;;;;;;;11.70;7.57;;;2.70;99.90;;;;;;5029791;28;20116;-82
2023/03/12 07:57:49;;;;;;;12.18;6.70;;;1.50;99.90;;;;;;4996429;28;20040;-83
2023/03/12 08:00:15;;;;;;;10.88;6.95;;;1.40;99.90;;;;;;5029515;28;20045;-83
2023/03/12 08:02:41;;;;;;;14.63;6.30;;;1.40;99.90;;;;;;4997403;28;20085;-82
2023/03/12 08:05:07;;;;;;;11.07;6.63;;;1.40;99.90;;;;;;5030051;28;20072;-82
2023/03/12 08:07:34;;;;;;;11.50;6.90;;;1.40;99.90;;;;;;5012949;28;20581;-82
2023/03/12 08:10:00;;;;;;;;;;;1.40;99.90;;;;;;5029788;28;20076;-82
2023/03/12 08:12:27;;;;;;;13.48;7.57;;;1.30;99.90;;;;;;5029410;28;19917;-82
2023/03/12 08:14:53;;;;;;;14.27;8.13;;;1.30;99.90;;;;;;5030595;28;20120;-82
2023/03/12 08:17:19;;;;;;;13.20;7.78;;;1.30;99.90;;;;;;5029433;28;20045;-83
2023/03/12 08:19:45;;;;;;;11.27;7.20;;;1.30;99.90;;;;;;5028942;28;20044;-82
2023/03/12 08:22:10;;;;;;;12.85;7.45;;;1.30;99.90;;;;;;5013006;28;20037;-82
2023/03/12 08:24:36;;;;;;;15.88;8.02;;;2.20;99.90;;;;;;5030087;28;20037;-84
2023/03/12 08:27:02;;;;;;;12.43;7.82;;;1.20;99.90;;;;;;5034410;28;20489;-85
2023/03/12 08:29:27;;;;;;;12.52;8.27;;;1.30;99.90;;;;;;5015557;28;20053;-87
2023/03/12 08:31:54;;;;;;;15.38;8.07;;;1.20;99.90;;;;;;5002578;28;20474;-84
2023/03/12 08:34:20;;;;;;;10.32;7.30;;;1.30;99.90;;;;;;5005918;28;20462;-84
2023/03/12 08:36:46;;;;;;;12.85;6.68;;;1.30;99.90;;;;;;5001716;28;20034;-83
2023/03/12 08:39:12;;;;;;;9.60;5.93;;;2.00;99.90;;;;;;5019485;28;20444;-84
2023/03/12 08:41:38;;;;;;;11.93;7.90;;;1.70;99.90;;;;;;5035454;28;20069;-84
2023/03/12 08:44:03;;;;;;;14.20;6.78;;;1.50;99.90;;;;;;5036814;28;20124;-84
2023/03/12 08:46:29;;;;;;;11.98;6.22;;;1.50;99.90;;;;;;5019048;28;20091;-83
2023/03/12 08:48:55;;;;;;;12.05;8.23;;;2.80;99.90;;;;;;5016621;28;20049;-83
2023/03/12 08:51:21;;;;;;;12.40;7.55;;;2.20;99.90;;;;;;5032622;28;20081;-82
2023/03/12 08:53:46;;;;;;;11.90;8.07;;;3.30;99.90;;;;;;5016028;28;20120;-83
2023/03/12 08:56:12;;;;;;;12.90;8.30;;;1.60;99.90;;;;;;5016573;28;20284;-82
2023/03/12 08:58:38;;;;;;;10.15;6.82;;;1.60;99.90;;;;;;5032571;28;20033;-81
2023/03/12 09:01:08;;;;;;;7.40;5.35;;;1.90;99.90;;;;;;5016726;28;20037;-81
2023/03/12 09:03:34;;;;;;;11.18;6.80;;;1.70;99.90;;;;;;5015846;28;20521;-81
2023/03/12 09:06:12;;;;;;;15.05;7.80;;;1.80;99.90;;;;;;5015970;28;20049;-80
2023/03/12 09:08:39;;;;;;;14.35;6.70;;;1.90;99.90;;;;;;5031990;28;20048;-81
2023/03/12 09:11:05;;;;;;;16.58;8.07;;;1.80;99.90;;;;;;5032785;28;20548;-81
2023/03/12 09:13:31;;;;;;;12.38;6.75;;;1.80;99.90;;;;;;5014421;28;20055;-84
2023/03/12 09:16:01;;;;;;;16.45;7.35;;;1.80;99.90;;;;;;5016772;28;20417;-84
2023/03/12 09:18:28;;;;;;;14.18;7.80;;;1.80;99.90;;;;;;5017016;28;20045;-83
2023/03/12 09:20:54;;;;;;;13.30;7.43;;;2.80;99.90;;;;;;5030412;28;20389;-84
2023/03/12 09:23:20;;;;;;;13.63;7.68;;;2.00;99.90;;;;;;4999795;28;20048;-83
2023/03/12 09:25:46;;;;;;;11.52;7.30;;;1.80;99.90;;;;;;4980247;28;20042;-85
2023/03/12 09:28:12;;;;;;;14.57;8.18;;;2.20;99.90;;;;;;5034939;28;20541;-83
2023/03/12 09:30:38;;;;;;;13.82;6.80;;;1.80;99.90;;;;;;5016957;28;20048;-84
2023/03/12 09:33:04;;;;;;;11.05;7.13;;;1.80;99.90;;;;;;4983843;28;20041;-84
2023/03/12 09:35:30;;;;;;;13.07;7.35;;;2.90;99.90;;;;;;5015380;28;20034;-84
2023/03/12 09:37:57;;;;;;;10.60;7.35;;;2.50;99.90;;;;;;5012997;28;20080;-83
2023/03/12 09:40:28;;;;;;;8.95;5.93;;;2.10;99.90;;;;;;5015826;28;20519;-84
2023/03/12 09:42:56;;;;;;;13.75;7.38;;;1.80;99.90;;;;;;5014377;28;20401;-84
2023/03/12 09:45:28;;;;;;;8.65;5.75;;;1.80;99.90;;;;;;5030881;28;20395;-83
2023/03/12 09:48:05;;;;;;;12.07;5.03;;;2.00;99.90;;;;;;5029582;28;20042;-83
2023/03/12 09:50:32;;;;;;;11.13;8.05;;;1.90;99.90;;;;;;5031242;28;20075;-82
2023/03/12 09:53:24;;;;;;;11.48;6.95;;;1.90;99.90;;;;;;5029420;28;20026;-83
2023/03/12 09:55:52;;;;;;;13.27;8.35;;;1.90;99.90;;;;;;5001619;28;20057;-85
2023/03/12 09:58:28;;;;;;;10.68;6.88;;;2.40;99.90;;;;;;5032363;28;20041;-84
2023/03/12 10:01:14;;;;;;;12.55;7.85;;;2.00;99.90;;;;;;5015045;28;20053;-84
2023/03/12 10:03:54;;;;;;;9.70;5.88;;;2.00;99.90;;;;;;5014312;28;20140;-83
2023/03/12 10:06:23;;;;;;;11.43;6.40;;;2.00;99.90;;;;;;5033860;28;20053;-84
2023/03/12 10:09:27;;;;;;;8.27;5.68;;;3.50;99.90;;;;;;5030642;28;20552;-83
2023/03/12 10:12:06;;;;;;;6.93;4.47;;;2.00;99.90;;;;;;5013290;28;20094;-85
2023/03/12 10:14:46;;;;;;;13.30;6.70;;;2.20;99.90;;;;;;5013826;28;20088;-85
2023/03/12 10:17:21;;;;;;;8.32;5.32;;;2.20;99.90;;;;;;5032361;28;20488;-83
2023/03/12 10:20:13;;;;;;;9.65;6.00;;;2.20;99.90;;;;;;5062953;28;20033;-83
2023/03/12 10:22:51;;;;;;;10.95;5.80;;;2.20;99.90;;;;;;5005728;28;20041;-82
2023/03/12 10:25:52;;;;;;;13.43;7.40;;;2.30;99.90;;;;;;5028811;28;20041;-83
2023/03/12 10:28:48;;;;;;;10.93;6.65;;;2.40;99.90;;;;;;4979162;28;20045;-83
2023/03/12 10:31:25;;;;;;;10.25;5.95;;;2.40;99.90;;;;;;5010246;28;20076;-82
2023/03/12 10:33:54;;;;;;;;;;;2.40;99.90;;;;;;5029210;28;20421;-80
2023/03/12 10:36:32;;;;;;;11.18;7.03;;;2.50;99.90;;;;;;5013594;28;19917;-84
2023/03/12 10:38:58;;;;;;;10.02;6.20;;;2.60;99.90;;;;;;5025531;28;20060;-83
2023/03/12 10:41:28;;;;;;;12.88;6.75;;;2.60;99.90;;;;;;5034423;28;20037;-82
2023/03/12 10:43:59;;;;;;;7.70;5.30;;;3.20;99.90;;;;;;5013347;28;20073;-82
2023/03/12 10:47:01;;;;;;;15.43;7.47;;;2.60;99.90;;;;;;5029679;28;20041;-82
2023/03/12 10:49:33;;;;;;;9.07;6.53;;;2.60;99.90;;;;;;5008301;28;20049;-82
2023/03/12 10:52:21;;;;;;;9.13;6.55;;;3.50;99.90;;;;;;5011538;28;20041;-82
2023/03/12 10:54:50;;;;;;;8.63;5.80;;;2.70;99.90;;;;;;5013059;28;20045;-83
2023/03/12 10:57:19;;;;;;;15.35;8.20;;;2.70;99.90;;;;;;5029163;28;20037;-82
2023/03/12 10:59:47;;;;;;;11.63;6.95;;;3.50;99.90;;;;;;5028492;28;20040;-82
2023/03/12 11:02:33;;;;;;;10.65;7.32;;;2.80;99.90;;;;;;4994309;28;20037;-86
2023/03/12 11:05:01;;;;;;;9.63;6.47;;;2.90;99.90;;;;;;5027772;28;20068;-84
2023/03/12 11:07:32;;;;;;;15.35;9.05;;;3.00;99.90;;;;;;5012593;28;20041;-84
2023/03/12 11:10:05;;;;;;;14.77;8.40;;;2.90;99.90;;;;;;5132948;27;1280396;-83
2023/03/12 11:12:34;;;;;;;13.57;8.30;;;2.90;99.90;;;;;;5127489;27;20066;-83
2023/03/12 11:15:30;;;;;;;12.90;7.97;;;3.00;99.90;;;;;;5144615;27;20280;-80
2023/03/12 11:18:35;;;;;;;13.98;8.38;;;2.90;99.90;;;;;;5131849;27;20039;-84
2023/03/12 11:21:09;;;;;;;11.77;7.38;;;2.90;99.90;;;;;;5120436;27;20042;-83
2023/03/12 11:23:38;;;;;;;14.32;7.57;;;2.10;99.90;;;;;;5143777;27;20356;-84
2023/03/12 11:26:29;;;;;;;14.55;8.25;;;3.00;99.90;;;;;;5128619;27;20142;-82
2023/03/12 11:29:15;;;;;;;14.63;8.25;;;3.10;99.90;;;;;;5141045;27;20043;-85
2023/03/12 11:32:03;;;;;;;14.32;8.75;;;3.10;99.90;;;;;;5132118;27;20047;-80
2023/03/12 11:34:32;;;;;;;13.65;7.40;;;3.10;99.90;;;;;;5136603;27;20038;-82
2023/03/12 11:37:43;;;;;;;15.57;9.32;;;3.30;99.90;;;;;;5146487;27;20039;-82
2023/03/12 11:40:43;;;;;;;16.17;9.20;;;3.30;99.90;;;;;;5096997;27;20047;-84
2023/03/12 11:43:37;;;;;;;17.23;9.00;;;3.40;99.90;;;;;;5145408;27;20049;-85
2023/03/12 11:46:11;;;;;;;21.13;9.55;;;3.50;99.90;;;;;;5147451;27;20147;-83
2023/03/12 11:48:54;;;;;;;15.63;8.32;;;3.50;99.90;;;;;;5140004;27;20125;-82
2023/03/12 11:51:29;;;;;;;16.00;8.38;;;3.60;99.90;;;;;;5145853;27;20083;-84
2023/03/12 11:54:32;;;;;;;19.90;10.55;;;3.70;99.90;;;;;;5144646;27;20052;-84
2023/03/12 11:57:04;;;;;;;14.52;8.35;;;3.70;99.90;;;;;;5134500;27;20070;-84
2023/03/12 11:59:49;;;;;;;17.67;9.55;;;3.90;99.90;;;;;;5112323;27;20042;-84
2023/03/12 12:02:29;;;;;;;19.02;9.73;;;4.00;99.90;;;;;;5114871;27;20035;-83
2023/03/12 12:05:13;;;;;;;15.25;8.23;;;4.00;99.90;;;;;;5132405;27;20046;-84
2023/03/12 12:07:51;;;;;;;17.77;9.38;;;4.10;99.90;;;;;;5115224;27;20051;-84
2023/03/12 12:10:35;;;;;;;13.82;8.52;;;4.20;99.90;;;;;;5138710;27;20125;-84
2023/03/12 12:13:07;;;;;;;17.40;9.15;;;4.20;99.90;;;;;;5129893;27;20042;-84
2023/03/12 12:15:47;;;;;;;16.50;9.00;;;4.20;99.90;;;;;;5143689;27;20043;-84
2023/03/12 12:18:26;;;;;;;15.35;7.72;;;4.30;99.90;;;;;;5129374;27;20226;-84
2023/03/12 12:21:07;;;;;;;20.42;8.52;;;4.90;99.90;;;;;;5108294;27;20039;-84
2023/03/12 12:24:08;;;;;;;16.17;9.25;;;4.50;99.90;;;;;;5130286;27;20081;-84
2023/03/12 12:26:57;;;;;;;14.05;7.38;;;4.70;99.90;;;;;;5043563;27;20052;-84
2023/03/12 12:29:25;;;;;;;16.65;8.40;;;4.90;99.90;;;;;;5114133;27;20041;-84
2023/03/12 12:32:00;;;;;;;14.98;8.48;;;5.00;99.90;;;;;;5109758;27;20038;-84
2023/03/12 12:34:32;;;;;;;13.63;7.70;;;5.10;99.90;;;;;;5113318;27;20073;-84
2023/03/12 12:37:21;;;;;;;16.77;8.98;;;5.20;99.90;;;;;;5098019;27;20035;-84
2023/03/12 12:40:07;;;;;;;15.30;7.10;;;5.30;99.90;;;;;;5125251;27;20046;-84
2023/03/12 12:42:39;;;;;;;18.17;9.10;;;5.50;99.90;;;;;;5117911;27;20087;-84
2023/03/12 12:45:12;;;;;;;19.60;9.75;;;5.50;99.90;;;;;;5110312;27;20039;-84
2023/03/12 12:48:05;;;;;;;17.23;8.35;;;5.60;99.90;;;;;;5131986;27;20038;-84
2023/03/12 12:50:36;;;;;;;21.15;9.68;;;5.70;99.90;;;;;;5119115;27;20039;-84
2023/03/12 12:53:13;;;;;;;19.08;8.45;;;5.80;99.90;;;;;;5123945;27;20042;-84
2023/03/12 12:55:47;;;;;;;;;;;5.90;99.90;;;;;;5116297;27;20034;-84
2023/03/12 12:58:55;;;;;;;24.25;10.30;;;6.00;99.90;;;;;;5129658;27;19923;-84
2023/03/12 13:01:21;;;;;;;21.27;10.45;;;6.10;99.90;;;;;;5098227;27;20444;-84
2023/03/12 13:03:48;;;;;;;;;;;6.10;99.90;;;;;;5100437;27;20467;-84
2023/03/12 13:06:14;;;;;;;22.73;9.57;;;6.20;99.90;;;;;;5117742;27;19923;-84
2023/03/12 13:08:41;;;;;;;22.90;9.82;;;6.30;99.90;;;;;;5100982;27;20579;-84
2023/03/12 13:11:15;;;;;;;18.77;9.07;;;6.90;99.90;;;;;;5109395;27;20046;-84